createdAt,value
2019-05-03T00:02:01.913Z,97114.71
2019-05-03T00:07:06.468Z,97114.50
2019-05-03T00:12:12.655Z,97105.02
2019-05-03T00:17:17.694Z,97114.09
2019-05-03T00:22:22.439Z,97115.97
2019-05-03T00:27:27.177Z,97109.55
2019-05-03T00:32:32.435Z,97107.16
2019-05-03T00:37:38.614Z,97100.03
2019-05-03T00:42:43.354Z,97101.27
2019-05-03T00:47:48.200Z,97093.33
2019-05-03T00:52:53.150Z,97102.73
2019-05-03T00:57:57.888Z,97108.28
2019-05-03T01:03:02.637Z,97117.41
2019-05-03T01:08:07.375Z,97116.04
2019-05-03T01:13:12.414Z,97123.53
2019-05-03T01:18:18.911Z,97122.34
2019-05-03T01:23:23.546Z,97124.22
2019-05-03T01:28:28.291Z,97123.43
2019-05-03T01:33:33.036Z,97116.06
2019-05-03T01:38:37.780Z,97123.31
2019-05-03T01:43:42.410Z,97135.39
2019-05-03T01:48:54.216Z,97135.16
2019-05-03T01:53:58.856Z,97131.48
2019-05-03T01:59:03.498Z,97139.70
2019-05-03T02:04:12.359Z,97128.87
2019-05-03T02:09:16.987Z,97122.52
2019-05-03T02:14:22.168Z,97114.45
2019-05-03T02:19:26.989Z,97116.32
2019-05-03T02:24:32.793Z,97110.63
2019-05-03T02:29:37.701Z,97104.22
2019-05-03T02:34:43.843Z,97106.64
2019-05-03T02:39:53.153Z,97121.65
2019-05-03T02:44:58.892Z,97131.27
2019-05-03T02:50:06.206Z,97128.16
2019-05-03T02:55:11.106Z,97127.00
2019-05-03T03:00:18.054Z,97125.91
2019-05-03T03:05:25.139Z,97132.88
2019-05-03T03:10:30.287Z,97136.36
2019-05-03T03:15:36.274Z,97149.14
2019-05-03T03:20:44.898Z,97152.91
2019-05-03T03:25:48.817Z,97155.06
2019-05-03T03:31:17.995Z,97155.00
2019-05-03T03:36:46.212Z,97154.12
2019-05-03T03:41:29.455Z,97158.83
2019-05-03T03:46:35.771Z,97152.40
2019-05-03T03:51:40.693Z,97157.42
2019-05-03T03:56:56.006Z,97159.30
2019-05-03T04:01:54.948Z,97167.66
2019-05-03T04:07:01.373Z,97161.47
2019-05-03T04:12:06.548Z,97162.77
2019-05-03T04:17:28.088Z,97165.53
2019-05-03T04:22:32.804Z,97161.27
2019-05-03T04:27:38.594Z,97169.53
2019-05-03T04:32:45.479Z,97173.63
2019-05-03T04:37:50.786Z,97171.76
2019-05-03T04:42:55.711Z,97172.98
2019-05-03T04:48:00.719Z,97168.33
2019-05-03T04:53:05.762Z,97175.20
2019-05-03T04:58:10.725Z,97174.25
2019-05-03T05:03:15.457Z,97179.42
2019-05-03T05:08:21.739Z,97179.11
2019-05-03T05:13:26.359Z,97174.88
2019-05-03T05:18:35.661Z,97177.22
2019-05-03T05:23:42.004Z,97173.30
2019-05-03T05:28:51.161Z,97173.56
2019-05-03T05:33:57.546Z,97182.19
2019-05-03T05:39:02.388Z,97177.52
2019-05-03T05:44:08.883Z,97171.96
2019-05-03T05:49:15.460Z,97165.30
2019-05-03T05:54:20.199Z,97157.90
2019-05-03T05:59:26.447Z,97160.63
2019-05-03T06:04:31.225Z,97161.59
2019-05-03T06:09:38.972Z,97172.44
2019-05-03T06:14:45.396Z,97174.63
2019-05-03T06:19:55.082Z,97174.15
2019-05-03T06:25:07.412Z,97167.14
2019-05-03T06:30:14.928Z,97168.65
2019-05-03T06:35:19.674Z,97160.66
2019-05-03T06:40:25.906Z,97160.84
2019-05-03T06:45:30.673Z,97157.25
2019-05-03T06:50:36.893Z,97164.02
2019-05-03T06:55:46.885Z,97162.94
2019-05-03T07:01:00.359Z,97156.64
2019-05-03T07:06:18.630Z,97159.93
2019-05-03T07:11:24.763Z,97156.19
2019-05-03T07:16:30.876Z,97158.55
2019-05-03T07:21:35.729Z,97152.75
2019-05-03T07:26:40.571Z,97149.16
2019-05-03T07:31:45.337Z,97151.20
2019-05-03T07:36:50.266Z,97136.96
2019-05-03T07:41:55.166Z,97135.36
2019-05-03T07:46:59.959Z,97137.42
2019-05-03T07:52:05.853Z,97133.63
2019-05-03T07:57:30.961Z,97128.72
2019-05-03T08:02:36.031Z,97121.06
2019-05-03T08:07:43.920Z,97115.40
2019-05-03T08:12:48.151Z,97113.67
2019-05-03T08:17:52.735Z,97109.36
2019-05-03T08:22:57.735Z,97104.91
2019-05-03T08:28:02.364Z,97104.64
2019-05-03T08:33:17.670Z,97104.96
2019-05-03T08:38:22.625Z,97096.32
2019-05-03T08:43:27.363Z,97094.28
2019-05-03T08:48:31.994Z,97091.01
2019-05-03T08:53:36.865Z,97082.97
2019-05-03T08:58:41.491Z,97082.37
2019-05-03T09:03:46.236Z,97082.10
2019-05-03T09:08:54.355Z,97065.30
2019-05-03T09:14:01.457Z,97065.53
2019-05-03T09:19:06.098Z,97057.98
2019-05-03T09:24:10.848Z,97052.06
2019-05-03T09:29:15.504Z,97049.78
2019-05-03T09:34:20.233Z,97048.52
2019-05-03T09:39:25.003Z,97039.06
2019-05-03T09:44:29.835Z,97031.64
2019-05-03T09:49:35.492Z,97025.69
2019-05-03T09:54:46.477Z,97013.86
2019-05-03T09:59:57.094Z,97005.59
2019-05-03T10:04:57.944Z,96991.45
2019-05-03T10:10:02.759Z,96988.97
2019-05-03T10:15:07.645Z,96976.04
2019-05-03T10:20:15.355Z,96974.02
2019-05-03T10:25:20.471Z,96966.81
2019-05-03T10:30:26.916Z,96966.42
2019-05-03T10:35:31.704Z,96953.95
2019-05-03T10:40:38.092Z,96950.38
2019-05-03T10:45:44.872Z,96952.67
2019-05-03T10:50:51.019Z,96938.65
2019-05-03T10:56:14.789Z,96936.27
2019-05-03T11:01:21.533Z,96922.55
2019-05-03T11:06:26.382Z,96923.20
2019-05-03T11:11:31.015Z,96918.02
2019-05-03T11:16:37.336Z,96906.11
2019-05-03T11:21:42.076Z,96900.18
2019-05-03T11:26:50.759Z,96907.64
2019-05-03T11:31:59.941Z,96905.38
2019-05-03T11:37:09.808Z,96898.08
2019-05-03T11:42:15.299Z,96889.29
2019-05-03T11:47:20.818Z,96886.08
2019-05-03T11:52:25.987Z,96889.09
2019-05-03T11:57:30.750Z,96883.52
2019-05-03T12:02:37.114Z,96870.08
2019-05-03T12:07:42.066Z,96861.91
2019-05-03T12:12:48.436Z,96864.03
2019-05-03T12:17:59.501Z,96846.51
2019-05-03T12:23:06.067Z,96836.51
2019-05-03T12:28:11.858Z,96833.69
2019-05-03T12:33:18.675Z,96827.17
2019-05-03T12:38:25.381Z,96825.96
2019-05-03T12:43:29.823Z,96816.34
2019-05-03T12:48:36.189Z,96802.00
2019-05-03T12:59:58.869Z,96797.28
2019-05-03T13:05:04.874Z,96789.92
2019-05-03T13:10:10.137Z,96784.65
2019-05-03T13:15:16.704Z,96770.09
2019-05-03T13:20:22.225Z,96768.34
2019-05-03T13:25:28.546Z,96756.95
2019-05-03T13:30:34.539Z,96754.16
2019-05-03T13:35:39.463Z,96749.94
2019-05-03T13:40:45.323Z,96743.23
2019-05-03T13:45:51.130Z,96738.50
2019-05-03T13:50:55.863Z,96738.42
2019-05-03T13:56:00.459Z,96731.51
2019-05-03T14:01:05.629Z,96736.53
2019-05-03T14:06:10.708Z,96733.41
2019-05-03T14:11:15.714Z,96733.05
2019-05-03T14:16:20.500Z,96732.61
2019-05-03T14:21:34.578Z,96743.52
2019-05-03T14:26:40.821Z,96742.39
2019-05-03T14:31:45.856Z,96744.81
2019-05-03T14:36:50.635Z,96744.87
2019-05-03T14:41:55.636Z,96735.86
2019-05-03T14:47:00.248Z,96743.17
2019-05-03T14:52:05.660Z,96741.68
2019-05-03T14:57:16.716Z,96742.97
2019-05-03T15:02:40.256Z,96736.45
2019-05-03T15:07:35.154Z,96736.34
2019-05-03T15:12:41.149Z,96740.62
2019-05-03T15:17:45.931Z,96750.52
2019-05-03T15:22:50.642Z,96745.87
2019-05-03T15:27:55.512Z,96746.13
2019-05-03T15:33:00.994Z,96746.84
2019-05-03T15:38:05.923Z,96741.66
2019-05-03T15:43:15.654Z,96739.41
2019-05-03T15:48:24.919Z,96732.03
2019-05-03T15:53:29.555Z,96726.84
2019-05-03T15:58:34.300Z,96730.55
2019-05-03T16:03:39.449Z,96725.70
2019-05-03T16:08:44.600Z,96732.02
2019-05-03T16:13:49.388Z,96730.52
2019-05-03T16:18:54.209Z,96737.59
2019-05-03T16:23:59.921Z,96741.79
2019-05-03T16:29:15.042Z,96745.96
2019-05-03T16:34:21.116Z,96747.30
2019-05-03T16:39:27.500Z,96755.80
2019-05-03T16:44:32.254Z,96755.80
2019-05-03T16:49:37.091Z,96757.20
2019-05-03T16:54:42.459Z,96759.36
2019-05-03T16:59:47.195Z,96764.12
2019-05-03T17:04:55.662Z,96770.53
2019-05-03T17:10:09.168Z,96775.42
2019-05-03T17:15:14.440Z,96777.03
2019-05-03T17:20:19.616Z,96784.36
2019-05-03T17:25:24.580Z,96786.63
2019-05-03T17:30:34.093Z,96792.16
2019-05-03T17:35:36.130Z,96805.74
2019-05-03T17:40:45.726Z,96803.41
2019-05-03T17:45:55.310Z,96813.80
2019-05-03T17:51:00.136Z,96815.45
2019-05-03T17:56:21.669Z,96818.96
2019-05-03T18:01:44.577Z,96829.41
2019-05-03T18:06:51.025Z,96833.56
2019-05-03T18:12:00.594Z,96840.70
2019-05-03T18:17:06.174Z,96854.67
2019-05-03T18:22:15.158Z,96859.59
2019-05-03T18:27:22.655Z,96863.57
2019-05-03T18:32:31.149Z,96877.98
2019-05-03T18:37:39.079Z,96879.27
2019-05-03T18:42:55.571Z,96886.28
2019-05-03T18:48:04.659Z,96881.63
2019-05-03T18:53:12.388Z,96884.78
2019-05-03T18:58:20.731Z,96885.28
2019-05-03T19:03:27.950Z,96889.13
2019-05-03T19:08:36.972Z,96895.90
2019-05-03T19:14:04.692Z,96888.63
2019-05-03T19:19:15.278Z,96899.22
2019-05-03T19:24:20.728Z,96899.94
2019-05-03T19:29:26.980Z,96902.36
2019-05-03T19:34:44.393Z,96907.61
2019-05-03T19:39:37.930Z,96901.89
2019-05-03T19:44:42.863Z,96901.83
2019-05-03T19:49:47.608Z,96903.52
2019-05-03T19:54:52.789Z,96914.44
2019-05-03T20:00:00.208Z,96907.39
2019-05-03T20:05:20.582Z,96899.09
2019-05-03T20:10:29.546Z,96903.84
2019-05-03T20:15:38.587Z,96914.51
2019-05-03T20:20:48.602Z,96918.02
2019-05-03T20:25:56.076Z,96912.97
2019-05-03T20:31:01.091Z,96908.05
2019-05-03T20:36:05.943Z,96922.44
2019-05-03T20:41:10.683Z,96927.33
2019-05-03T20:46:18.908Z,96930.34
2019-05-03T20:51:25.206Z,96935.45
2019-05-03T20:57:01.571Z,96930.73
2019-05-03T21:02:06.420Z,96936.17
2019-05-03T21:07:11.531Z,96936.97
2019-05-03T21:12:17.012Z,96939.03
2019-05-03T21:17:40.182Z,96938.52
2019-05-03T21:22:46.305Z,96965.72
2019-05-03T21:27:52.166Z,96968.88
2019-05-03T21:32:57.103Z,96972.81
2019-05-03T21:38:02.384Z,96976.90
2019-05-03T21:43:07.497Z,96985.09
2019-05-03T21:48:14.601Z,96971.94
2019-05-03T21:53:19.594Z,96971.23
2019-05-03T21:58:26.855Z,96975.11
2019-05-03T22:03:31.900Z,96964.36
2019-05-03T22:08:36.475Z,96963.80
2019-05-03T22:13:41.917Z,96963.86
2019-05-03T22:18:47.772Z,96956.93
2019-05-03T22:24:10.574Z,96960.75
2019-05-03T22:29:17.180Z,96963.52
2019-05-03T22:34:22.077Z,96946.48
2019-05-03T22:39:26.820Z,96943.14
2019-05-03T22:44:31.667Z,96946.95
2019-05-03T22:49:37.304Z,96940.06
2019-05-03T22:54:42.383Z,96946.38
2019-05-03T22:59:48.369Z,96950.00
2019-05-03T23:04:55.257Z,96948.26
2019-05-03T23:10:00.208Z,96943.25
2019-05-03T23:15:08.014Z,96939.87
2019-05-03T23:20:27.702Z,96936.05
2019-05-03T23:25:32.657Z,96933.17
2019-05-03T23:30:38.120Z,96932.40
2019-05-03T23:35:44.388Z,96939.28
2019-05-03T23:40:49.765Z,96936.73
2019-05-03T23:45:55.284Z,96931.36
2019-05-03T23:51:00.470Z,96929.08
2019-05-03T23:56:20.672Z,96926.61
